Time;durP1;ratioP1;P1;durP2;ratioP2;P2;SDS_P1;SDS_P2;PMS_P1;PMS_P2;Temp;Humidity;BMP_temperature;BMP_pressure;BME280_temperature;BME280_humidity;BME280_pressure;Samples;Min_cycle;Max_cycle;Signal;HPM_P1;HPM_P2
2022/05/12 00:00:35;;;;;;;8.90;2.40;;;12.00;99.90;;;;;;5051178;28;20037;-86
2022/05/12 00:03:04;;;;;;;8.10;1.93;;;12.00;99.90;;;;;;5031732;28;20051;-89
2022/05/12 00:05:30;;;;;;;8.47;2.10;;;11.90;99.90;;;;;;5043953;28;20046;-88
2022/05/12 00:07:56;;;;;;;8.80;1.73;;;11.80;99.90;;;;;;5030676;28;20075;-87
2022/05/12 00:10:24;;;;;;;7.63;1.50;;;11.80;99.90;;;;;;5051245;28;20052;-88
2022/05/12 00:12:51;;;;;;;8.00;1.93;;;11.70;99.90;;;;;;5018364;28;20052;-84
2022/05/12 00:15:24;;;;;;;8.37;1.60;;;11.80;99.90;;;;;;5033745;28;20080;-84
2022/05/12 00:17:50;;;;;;;6.00;1.60;;;11.60;99.90;;;;;;5018493;28;20049;-86
2022/05/12 00:20:20;;;;;;;5.30;1.67;;;11.60;99.90;;;;;;5034428;28;20071;-83
2022/05/12 00:22:47;;;;;;;7.67;1.60;;;11.60;99.90;;;;;;5052260;28;20049;-86
2022/05/12 00:25:15;;;;;;;8.03;1.40;;;11.50;99.90;;;;;;5034814;28;20041;-84
2022/05/12 00:27:41;;;;;;;4.87;1.63;;;11.50;99.90;;;;;;5031013;28;20090;-85
2022/05/12 00:30:11;;;;;;;6.50;2.00;;;11.50;99.90;;;;;;5029961;28;20504;-88
2022/05/12 00:32:38;;;;;;;9.90;1.70;;;11.40;99.90;;;;;;5035877;28;20463;-88
2022/05/12 00:35:05;;;;;;;4.47;1.47;;;11.40;99.90;;;;;;5050187;28;20052;-85
2022/05/12 00:37:32;;;;;;;7.33;1.50;;;11.40;99.90;;;;;;5030971;28;20069;-88
2022/05/12 00:39:58;;;;;;;7.63;1.80;;;11.30;99.90;;;;;;5011314;28;20411;-85
2022/05/12 00:42:24;;;;;;;5.87;1.60;;;11.30;99.90;;;;;;5051295;28;20044;-84
2022/05/12 00:44:49;;;;;;;4.73;1.30;;;11.20;99.90;;;;;;5020553;28;20091;-84
2022/05/12 00:47:15;;;;;;;7.57;1.53;;;11.30;99.90;;;;;;5049291;28;20099;-85
2022/05/12 00:49:42;;;;;;;6.80;1.47;;;11.20;99.90;;;;;;5015292;28;20045;-85
2022/05/12 00:52:11;;;;;;;4.90;1.40;;;11.20;99.90;;;;;;5050332;28;20045;-85
2022/05/12 00:54:44;;;;;;;6.37;1.50;;;11.20;99.90;;;;;;5034545;28;20419;-83
2022/05/12 00:57:15;;;;;;;5.10;1.30;;;11.20;99.90;;;;;;5031824;28;20415;-85
2022/05/12 00:59:41;;;;;;;6.27;1.50;;;11.10;99.90;;;;;;5051077;28;20041;-86
2022/05/12 01:02:11;;;;;;;6.17;1.60;;;11.10;99.90;;;;;;5032503;28;20072;-85
2022/05/12 01:04:39;;;;;;;4.60;1.50;;;11.00;99.90;;;;;;5038797;28;20126;-86
2022/05/12 01:07:05;;;;;;;5.47;1.60;;;11.00;99.90;;;;;;5027095;28;20052;-85
2022/05/12 01:09:32;;;;;;;11.07;1.80;;;11.00;99.90;;;;;;5014237;28;20041;-85
2022/05/12 01:11:59;;;;;;;4.77;1.97;;;10.90;99.90;;;;;;5030788;28;20491;-85
2022/05/12 01:14:25;;;;;;;9.30;1.47;;;10.90;99.90;;;;;;5033940;28;20050;-86
2022/05/12 01:16:53;;;;;;;6.70;1.40;;;10.90;99.90;;;;;;5013825;28;20060;-85
2022/05/12 01:19:22;;;;;;;6.07;1.57;;;10.80;99.90;;;;;;5048660;28;20076;-86
2022/05/12 01:21:49;;;;;;;3.50;1.60;;;10.80;99.90;;;;;;5014168;28;20473;-87
2022/05/12 01:24:18;;;;;;;10.37;1.80;;;10.70;99.90;;;;;;5032903;28;20041;-92
2022/05/12 01:26:45;;;;;;;4.67;1.70;;;10.70;99.90;;;;;;5017747;28;20083;-89
2022/05/12 01:29:10;;;;;;;7.73;1.70;;;10.60;99.90;;;;;;5034346;28;20037;-88
2022/05/12 01:31:37;;;;;;;4.97;1.63;;;10.50;99.90;;;;;;5031080;28;20041;-87
2022/05/12 01:34:05;;;;;;;4.10;2.17;;;10.40;99.90;;;;;;5018894;28;20041;-88
2022/05/12 01:36:32;;;;;;;5.77;1.50;;;10.40;99.90;;;;;;5017158;28;20063;-88
2022/05/12 01:38:58;;;;;;;8.77;1.53;;;10.30;99.90;;;;;;5050656;28;20099;-88
2022/05/12 01:41:25;;;;;;;5.40;1.60;;;10.30;99.90;;;;;;5018108;28;20438;-87
2022/05/12 01:43:51;;;;;;;4.93;1.77;;;10.40;99.90;;;;;;5022581;28;20052;-87
2022/05/12 01:46:19;;;;;;;8.40;1.70;;;10.20;99.90;;;;;;5031940;28;20036;-85
2022/05/12 01:48:45;;;;;;;5.50;1.53;;;10.20;99.90;;;;;;5030833;28;20385;-86
2022/05/12 01:51:12;;;;;;;7.60;1.80;;;10.20;99.90;;;;;;5012818;28;20048;-87
2022/05/12 01:53:39;;;;;;;6.20;1.57;;;10.30;99.90;;;;;;5018124;28;20072;-87
2022/05/12 01:56:05;;;;;;;6.97;1.93;;;10.20;99.90;;;;;;5032144;28;20044;-87
2022/05/12 01:58:33;;;;;;;5.40;1.33;;;10.20;99.90;;;;;;5050757;28;20049;-89
2022/05/12 02:00:59;;;;;;;10.13;2.10;;;10.10;99.90;;;;;;5033194;28;20542;-85
2022/05/12 02:03:25;;;;;;;6.80;1.60;;;10.30;99.90;;;;;;5050002;28;20128;-84
2022/05/12 02:05:50;;;;;;;3.90;1.80;;;10.10;99.90;;;;;;5015411;28;20057;-86
2022/05/12 02:08:17;;;;;;;6.90;1.67;;;10.10;99.90;;;;;;5027523;28;20060;-87
2022/05/12 02:10:47;;;;;;;6.93;1.60;;;10.10;99.90;;;;;;5044126;28;20095;-87
2022/05/12 02:13:15;;;;;;;6.37;1.57;;;10.00;99.90;;;;;;5032162;28;20041;-89
2022/05/12 02:15:42;;;;;;;8.23;1.83;;;10.10;99.90;;;;;;5030288;28;20444;-87
2022/05/12 02:18:09;;;;;;;6.27;1.73;;;10.00;99.90;;;;;;5046934;28;20072;-89
2022/05/12 02:20:35;;;;;;;6.57;1.50;;;10.20;99.90;;;;;;5050160;28;20041;-87
2022/05/12 02:23:01;;;;;;;5.77;1.60;;;10.10;99.90;;;;;;5021071;28;20076;-90
2022/05/12 02:25:27;;;;;;;3.70;1.60;;;10.00;99.90;;;;;;5017271;28;20530;-87
2022/05/12 02:27:55;;;;;;;5.67;2.10;;;10.00;99.90;;;;;;5024404;28;20487;-88
2022/05/12 02:30:24;;;;;;;5.90;1.70;;;10.00;99.90;;;;;;5019493;28;20041;-87
2022/05/12 02:32:52;;;;;;;5.70;1.80;;;9.90;99.90;;;;;;5014130;28;20049;-87
2022/05/12 02:35:19;;;;;;;6.13;1.90;;;10.10;99.90;;;;;;5016461;28;20052;-88
2022/05/12 02:37:46;;;;;;;10.23;2.03;;;9.90;99.90;;;;;;5011411;28;20058;-90
2022/05/12 02:40:14;;;;;;;5.67;1.60;;;10.00;99.90;;;;;;5014124;28;20124;-89
2022/05/12 02:42:40;;;;;;;5.20;1.97;;;9.80;99.90;;;;;;5022017;28;20047;-90
2022/05/12 02:45:07;;;;;;;7.43;2.30;;;9.80;99.90;;;;;;5017279;28;20411;-89
2022/05/12 02:47:33;;;;;;;7.77;2.40;;;9.80;99.90;;;;;;5033491;28;20315;-89
2022/05/12 02:50:00;;;;;;;11.07;2.60;;;10.00;99.90;;;;;;5017053;28;20094;-87
2022/05/12 02:52:26;;;;;;;9.57;2.60;;;9.80;99.90;;;;;;5050142;28;20495;-86
2022/05/12 02:54:52;;;;;;;7.50;2.07;;;10.00;99.90;;;;;;5020087;28;20045;-88
2022/05/12 02:57:18;;;;;;;7.93;1.83;;;9.80;99.90;;;;;;5031611;28;20049;-85
2022/05/12 02:59:47;;;;;;;8.60;2.40;;;9.80;99.90;;;;;;5011734;28;20045;-85
2022/05/12 03:02:13;;;;;;;5.73;2.40;;;9.80;99.90;;;;;;5032203;28;20089;-88
2022/05/12 03:04:39;;;;;;;7.17;2.87;;;9.90;99.90;;;;;;5049616;28;20076;-88
2022/05/12 03:07:06;;;;;;;6.23;2.50;;;9.70;99.90;;;;;;5016770;28;20523;-89
2022/05/12 03:09:32;;;;;;;7.50;2.43;;;9.70;99.90;;;;;;5042523;28;20045;-87
2022/05/12 03:11:58;;;;;;;7.17;2.73;;;9.80;99.90;;;;;;5031435;28;20416;-86
2022/05/12 03:14:24;;;;;;;10.47;2.83;;;9.80;99.90;;;;;;5048943;28;20049;-87
2022/05/12 03:16:53;;;;;;;8.90;2.80;;;9.80;99.90;;;;;;5018631;28;20045;-86
2022/05/12 03:19:19;;;;;;;6.80;2.33;;;9.80;99.90;;;;;;5018317;28;20087;-86
2022/05/12 03:21:46;;;;;;;8.37;2.80;;;9.80;99.90;;;;;;5033130;28;20047;-86
2022/05/12 03:24:13;;;;;;;8.97;2.40;;;9.70;99.90;;;;;;5034998;28;20053;-87
2022/05/12 03:26:40;;;;;;;7.27;2.33;;;9.70;99.90;;;;;;5037268;28;20045;-87
2022/05/12 03:29:06;;;;;;;9.57;2.50;;;9.70;99.90;;;;;;5034773;28;20140;-86
2022/05/12 03:31:32;;;;;;;6.67;2.80;;;9.70;99.90;;;;;;5016785;28;20136;-89
2022/05/12 03:34:00;;;;;;;10.83;2.50;;;9.70;99.90;;;;;;5033818;28;20069;-89
2022/05/12 03:36:25;;;;;;;10.93;2.40;;;9.60;99.90;;;;;;5033375;28;20519;-89
2022/05/12 03:38:53;;;;;;;8.10;2.23;;;9.60;99.90;;;;;;5009244;28;20051;-89
2022/05/12 03:41:20;;;;;;;10.60;2.70;;;9.60;99.90;;;;;;5028970;28;20037;-88
2022/05/12 03:46:31;;;;;;;8.27;2.83;;;9.60;99.90;;;;;;5045011;28;20444;-85
2022/05/12 03:48:57;;;;;;;6.97;2.77;;;9.50;99.90;;;;;;5040806;28;20048;-88
2022/05/12 03:51:23;;;;;;;4.43;2.43;;;9.50;99.90;;;;;;5049704;28;20049;-89
2022/05/12 03:53:49;;;;;;;7.73;2.73;;;9.50;99.90;;;;;;5015650;28;20049;-88
2022/05/12 03:56:14;;;;;;;7.67;2.63;;;9.50;99.90;;;;;;5033774;28;20080;-88
2022/05/12 03:58:42;;;;;;;11.57;3.07;;;9.60;99.90;;;;;;5036481;28;20044;-90
2022/05/12 04:01:07;;;;;;;11.57;3.10;;;9.40;99.90;;;;;;5035903;28;20073;-87
2022/05/12 04:03:34;;;;;;;9.00;3.20;;;9.50;99.90;;;;;;5019816;28;20250;-88
2022/05/12 04:06:01;;;;;;;12.73;3.47;;;9.40;99.90;;;;;;5019532;28;20056;-90
2022/05/12 04:08:28;;;;;;;8.73;3.27;;;9.50;99.90;;;;;;5017896;28;20041;-85
2022/05/12 04:10:54;;;;;;;10.27;3.23;;;9.50;99.90;;;;;;5014436;28;20141;-88
2022/05/12 04:13:19;;;;;;;11.53;3.37;;;9.50;99.90;;;;;;5032841;28;20101;-87
2022/05/12 04:15:47;;;;;;;9.77;4.07;;;9.50;99.90;;;;;;5017535;28;20045;-88
2022/05/12 04:18:12;;;;;;;10.40;3.90;;;9.50;99.90;;;;;;5020872;28;20056;-88
2022/05/12 04:20:38;;;;;;;10.67;4.00;;;9.50;99.90;;;;;;5027286;28;20037;-87
2022/05/12 04:23:05;;;;;;;11.30;3.73;;;9.40;99.90;;;;;;5015219;28;20135;-87
2022/05/12 04:25:31;;;;;;;14.43;4.13;;;9.40;99.90;;;;;;5034505;28;20483;-88
2022/05/12 04:27:57;;;;;;;13.63;4.10;;;9.50;99.90;;;;;;5033877;28;20049;-88
2022/05/12 04:30:25;;;;;;;12.37;4.07;;;9.60;99.90;;;;;;5049017;28;20041;-88
2022/05/12 04:32:53;;;;;;;11.87;4.07;;;9.60;99.90;;;;;;5033478;28;20045;-90
2022/05/12 04:35:20;;;;;;;14.47;3.97;;;9.60;99.90;;;;;;5015878;28;20095;-89
2022/05/12 04:37:48;;;;;;;14.30;4.07;;;9.70;99.90;;;;;;5016302;28;20049;-86
2022/05/12 04:40:21;;;;;;;13.67;4.03;;;9.70;99.90;;;;;;5024086;28;20531;-85
2022/05/12 04:42:48;;;;;;;14.73;4.57;;;9.70;99.90;;;;;;5014059;28;20587;-88
2022/05/12 04:45:14;;;;;;;13.40;3.77;;;9.70;99.90;;;;;;5041246;28;20135;-88
2022/05/12 04:47:43;;;;;;;9.80;4.47;;;9.90;99.90;;;;;;5034542;28;20484;-83
2022/05/12 04:50:13;;;;;;;13.93;4.57;;;9.90;99.90;;;;;;5030306;28;20041;-84
2022/05/12 04:52:39;;;;;;;15.23;4.70;;;9.90;99.90;;;;;;5031695;28;20042;-84
2022/05/12 04:55:10;;;;;;;13.70;5.10;;;10.00;99.90;;;;;;5042518;28;20056;-86
2022/05/12 04:57:36;;;;;;;14.83;5.23;;;10.00;99.90;;;;;;5034603;28;20041;-87
2022/05/12 05:00:03;;;;;;;17.10;5.50;;;10.00;99.90;;;;;;5032266;28;20087;-85
2022/05/12 05:02:29;;;;;;;10.70;4.30;;;10.10;99.90;;;;;;5026673;28;20059;-87
2022/05/12 05:04:55;;;;;;;18.50;5.60;;;10.10;99.90;;;;;;5033427;28;20044;-86
2022/05/12 05:07:24;;;;;;;12.93;4.73;;;10.10;99.90;;;;;;5034389;28;20479;-86
2022/05/12 05:09:50;;;;;;;14.17;5.20;;;10.30;99.90;;;;;;5048154;28;20041;-84
2022/05/12 05:12:16;;;;;;;17.17;5.17;;;10.30;99.90;;;;;;5033993;28;20072;-85
2022/05/12 05:14:42;;;;;;;17.90;5.87;;;10.40;99.90;;;;;;5033505;28;20083;-86
2022/05/12 05:17:08;;;;;;;14.87;5.13;;;10.40;99.90;;;;;;5028075;28;20474;-86
2022/05/12 05:19:35;;;;;;;11.83;5.23;;;10.40;99.90;;;;;;5011620;28;20055;-88
2022/05/12 05:22:01;;;;;;;14.23;5.37;;;10.60;99.90;;;;;;5012936;28;20132;-89
2022/05/12 05:24:29;;;;;;;9.53;4.90;;;10.50;99.90;;;;;;5031980;28;20123;-87
2022/05/12 05:26:55;;;;;;;13.47;6.47;;;10.60;99.90;;;;;;5048755;28;20057;-86
2022/05/12 05:29:21;;;;;;;14.30;5.70;;;10.70;99.90;;;;;;5048628;28;20060;-87
2022/05/12 05:31:47;;;;;;;14.93;5.80;;;10.70;99.90;;;;;;5039684;28;21013;-86
2022/05/12 05:34:12;;;;;;;14.70;6.53;;;10.80;99.90;;;;;;5039638;28;20049;-86
2022/05/12 05:36:42;;;;;;;15.47;6.20;;;10.90;99.90;;;;;;5023126;28;20098;-88
2022/05/12 05:39:17;;;;;;;17.10;6.17;;;11.00;99.90;;;;;;5055496;28;20075;-90
2022/05/12 05:41:44;;;;;;;15.13;7.37;;;11.10;99.90;;;;;;5039737;28;20383;-89
2022/05/12 05:44:09;;;;;;;18.03;7.37;;;11.30;99.90;;;;;;5067543;28;20047;-88
2022/05/12 05:46:35;;;;;;;17.13;7.40;;;11.30;99.90;;;;;;5011019;28;20041;-91
2022/05/12 05:49:01;;;;;;;13.70;7.17;;;11.20;99.90;;;;;;5025143;28;20127;-88
2022/05/12 05:54:11;;;;;;;;;;;11.50;99.90;;;;;;5041575;28;20052;-86
2022/05/12 05:56:37;;;;;;;19.10;9.27;;;11.50;99.90;;;;;;5016611;28;19920;-85
2022/05/12 05:59:04;;;;;;;17.33;8.73;;;11.70;99.90;;;;;;5056759;28;20439;-86
2022/05/12 06:01:29;;;;;;;17.87;9.40;;;11.60;99.90;;;;;;5047680;28;20119;-85
2022/05/12 06:03:57;;;;;;;18.83;9.83;;;11.70;99.90;;;;;;5031890;28;20467;-86
2022/05/12 06:06:23;;;;;;;14.83;9.17;;;11.80;99.90;;;;;;5049448;28;20083;-86
2022/05/12 06:08:48;;;;;;;17.00;9.13;;;11.90;99.90;;;;;;5031433;28;20582;-86
2022/05/12 06:11:15;;;;;;;18.77;10.07;;;11.90;99.90;;;;;;5055767;28;20082;-88
2022/05/12 06:13:41;;;;;;;19.07;9.97;;;11.90;99.90;;;;;;5047664;28;20132;-85
2022/05/12 06:16:08;;;;;;;20.53;9.43;;;12.00;99.90;;;;;;5047891;28;20135;-88
2022/05/12 06:18:47;;;;;;;22.07;9.93;;;12.00;99.90;;;;;;5034127;28;20048;-92
2022/05/12 06:21:13;;;;;;;17.80;9.67;;;12.10;99.90;;;;;;5033840;28;20037;-87
2022/05/12 06:23:39;;;;;;;18.47;9.17;;;12.30;99.90;;;;;;5024562;28;21824;-88
2022/05/12 06:26:13;;;;;;;19.47;9.67;;;12.40;99.90;;;;;;5033584;28;20045;-86
2022/05/12 06:28:40;;;;;;;19.25;9.35;;;12.30;99.90;;;;;;5032306;28;20037;-90
2022/05/12 06:31:07;;;;;;;20.77;9.67;;;12.40;99.90;;;;;;5026283;28;20168;-85
2022/05/12 06:33:33;;;;;;;19.73;8.20;;;12.50;99.90;;;;;;5014916;28;20048;-84
2022/05/12 06:36:02;;;;;;;16.90;9.03;;;12.60;99.90;;;;;;5014383;28;20098;-85
2022/05/12 06:38:28;;;;;;;21.53;8.30;;;12.70;99.90;;;;;;5040001;28;20040;-88
2022/05/12 06:41:00;;;;;;;16.27;8.00;;;12.80;99.90;;;;;;5029126;28;20038;-88
2022/05/12 06:43:26;;;;;;;18.87;7.63;;;13.00;99.90;;;;;;5031457;28;20132;-88
2022/05/12 06:45:52;;;;;;;16.30;6.87;;;13.00;99.90;;;;;;5028181;28;20132;-87
2022/05/12 06:48:20;;;;;;;16.10;7.03;;;13.10;99.90;;;;;;5045317;28;20037;-87
2022/05/12 06:50:47;;;;;;;15.27;6.67;;;13.10;99.90;;;;;;5030078;28;20040;-87
2022/05/12 06:53:14;;;;;;;22.33;6.33;;;13.20;99.90;;;;;;5032946;28;20142;-86
2022/05/12 06:55:40;;;;;;;15.50;6.17;;;13.30;99.90;;;;;;5020260;28;20045;-84
2022/05/12 06:58:09;;;;;;;14.87;5.50;;;13.40;99.90;;;;;;5029048;28;20072;-86
2022/05/12 07:00:35;;;;;;;21.67;6.47;;;13.50;99.90;;;;;;5036221;28;20116;-85
2022/05/12 07:03:01;;;;;;;19.70;5.03;;;13.60;99.90;;;;;;5050444;28;20687;-83
2022/05/12 07:05:28;;;;;;;8.60;4.50;;;13.70;99.90;;;;;;5034395;28;20037;-84
2022/05/12 07:07:57;;;;;;;11.00;4.57;;;13.80;99.90;;;;;;5050396;28;20123;-84
2022/05/12 07:10:24;;;;;;;11.13;4.50;;;13.80;99.90;;;;;;5050798;28;20569;-83
2022/05/12 07:12:50;;;;;;;12.23;4.13;;;13.90;99.90;;;;;;5025114;28;20048;-87
2022/05/12 07:15:16;;;;;;;9.33;3.50;;;13.90;99.90;;;;;;5049394;28;20471;-86
2022/05/12 07:17:44;;;;;;;12.40;3.97;;;13.90;99.90;;;;;;5031751;28;20133;-88
2022/05/12 07:28:34;;;;;;;12.57;4.10;;;14.30;99.90;;;;;;5040932;28;20045;-89
2022/05/12 07:31:00;;;;;;;10.43;3.63;;;14.20;99.90;;;;;;5021755;28;20412;-86
2022/05/12 07:33:26;;;;;;;12.73;3.60;;;14.20;99.90;;;;;;5053820;28;20105;-86
2022/05/12 07:35:55;;;;;;;7.80;3.10;;;14.50;99.90;;;;;;5057288;28;20065;-87
2022/05/12 07:38:23;;;;;;;9.83;3.13;;;14.40;99.90;;;;;;5023065;28;20125;-87
2022/05/12 07:40:49;;;;;;;13.47;4.07;;;14.50;99.90;;;;;;5030342;28;20040;-87
2022/05/12 07:43:14;;;;;;;9.70;3.23;;;14.50;99.90;;;;;;5052012;28;20037;-86
2022/05/12 07:45:40;;;;;;;11.07;3.30;;;14.60;99.90;;;;;;5022524;28;20048;-86
2022/05/12 07:48:07;;;;;;;13.63;3.23;;;14.70;99.90;;;;;;5031573;28;20433;-87
2022/05/12 07:50:33;;;;;;;10.90;3.43;;;14.80;99.90;;;;;;5036991;28;20068;-85
2022/05/12 07:52:59;;;;;;;11.93;3.40;;;14.80;99.90;;;;;;5049796;28;20475;-86
2022/05/12 07:55:26;;;;;;;10.33;3.43;;;15.10;99.90;;;;;;5041789;28;20074;-89
2022/05/12 07:57:51;;;;;;;12.07;2.90;;;15.00;99.90;;;;;;5059086;28;20112;-82
2022/05/12 08:00:20;;;;;;;6.03;2.70;;;15.40;99.90;;;;;;5056729;28;20063;-86
2022/05/12 08:02:47;;;;;;;9.43;2.10;;;15.30;99.90;;;;;;5047751;28;20049;-83
2022/05/12 08:05:12;;;;;;;8.73;2.43;;;15.50;99.90;;;;;;5051038;28;20502;-86
2022/05/12 08:07:38;;;;;;;8.50;2.60;;;15.40;99.90;;;;;;5049915;28;20098;-84
2022/05/12 08:10:05;;;;;;;9.93;2.20;;;15.60;99.90;;;;;;5034230;28;20483;-83
2022/05/12 08:12:32;;;;;;;10.30;2.37;;;15.60;99.90;;;;;;5028366;28;20052;-84
2022/05/12 08:15:03;;;;;;;9.07;2.50;;;15.70;99.90;;;;;;5046860;28;20037;-88
2022/05/12 08:17:32;;;;;;;10.52;2.47;;;15.80;99.90;;;;;;5030914;28;20059;-84
2022/05/12 08:19:58;;;;;;;7.53;2.00;;;16.00;99.90;;;;;;5030696;28;20118;-86
2022/05/12 08:22:24;;;;;;;11.03;2.70;;;16.10;99.90;;;;;;5029146;28;20429;-87
2022/05/12 08:24:51;;;;;;;10.13;2.20;;;16.10;99.90;;;;;;5032850;28;20033;-87
2022/05/12 08:27:21;;;;;;;7.73;2.13;;;16.20;99.90;;;;;;5033936;28;20041;-84
2022/05/12 08:29:48;;;;;;;8.30;2.70;;;16.10;99.90;;;;;;5046012;28;20041;-85
2022/05/12 08:32:14;;;;;;;8.57;2.67;;;15.90;99.90;;;;;;5037763;28;20139;-86
2022/05/12 08:34:49;;;;;;;7.50;2.03;;;16.00;99.90;;;;;;5032226;28;20041;-83
2022/05/12 08:37:20;;;;;;;5.17;2.00;;;15.80;99.90;;;;;;5030491;28;20131;-86
2022/05/12 08:39:46;;;;;;;8.70;2.13;;;16.20;99.90;;;;;;5052458;28;20394;-82
2022/05/12 08:42:20;;;;;;;9.90;2.27;;;16.30;99.90;;;;;;5048762;28;20617;-83
2022/05/12 08:44:59;;;;;;;8.10;1.90;;;16.40;99.90;;;;;;5032734;28;20153;-84
2022/05/12 08:47:29;;;;;;;10.97;1.83;;;16.50;99.90;;;;;;5029454;28;20492;-84
2022/05/12 08:49:56;;;;;;;9.20;2.30;;;16.50;99.90;;;;;;5048694;28;20131;-83
2022/05/12 08:52:25;;;;;;;7.53;2.03;;;16.30;99.90;;;;;;5029327;28;20045;-85
2022/05/12 08:54:58;;;;;;;8.03;2.13;;;16.30;99.90;;;;;;5029168;28;20432;-85
2022/05/12 08:57:32;;;;;;;6.57;1.73;;;16.60;99.90;;;;;;5031688;28;20103;-84
2022/05/12 09:00:06;;;;;;;8.57;1.50;;;16.80;99.90;;;;;;5024023;28;20034;-90
2022/05/12 09:02:43;;;;;;;8.80;1.90;;;16.90;99.90;;;;;;5049308;28;20139;-87
2022/05/12 09:05:15;;;;;;;5.97;1.83;;;17.10;99.90;;;;;;5034270;28;20037;-91
2022/05/12 09:07:47;;;;;;;7.63;1.90;;;17.60;99.90;;;;;;5034773;28;20442;-91
2022/05/12 09:10:25;;;;;;;5.03;1.93;;;18.00;99.90;;;;;;5047969;28;20041;-84
2022/05/12 09:12:57;;;;;;;8.57;2.20;;;18.20;99.90;;;;;;5027797;28;20052;-85
2022/05/12 09:15:31;;;;;;;10.50;2.23;;;17.90;99.90;;;;;;5013984;28;20276;-86
2022/05/12 09:18:15;;;;;;;7.23;1.90;;;17.90;99.90;;;;;;5030751;28;20644;-88
2022/05/12 09:20:41;;;;;;;11.90;2.13;;;18.10;99.90;;;;;;5032255;28;20039;-82
2022/05/12 09:23:07;;;;;;;8.73;2.17;;;18.40;99.90;;;;;;5047106;28;20041;-83
2022/05/12 09:25:41;;;;;;;6.80;1.83;;;18.20;99.90;;;;;;5033728;28;20045;-91
2022/05/12 09:28:19;;;;;;;7.87;2.20;;;18.10;99.90;;;;;;5016813;28;20041;-91
2022/05/12 09:30:48;;;;;;;5.93;1.80;;;18.10;99.90;;;;;;5034194;28;20507;-89
2022/05/12 09:33:38;;;;;;;6.63;1.63;;;18.20;99.90;;;;;;5053521;28;20073;-88
2022/05/12 09:36:14;;;;;;;6.60;1.80;;;18.30;99.50;;;;;;5039334;28;20119;-86
2022/05/12 09:38:45;;;;;;;5.87;2.03;;;17.70;99.90;;;;;;5008188;28;20401;-90
2022/05/12 09:41:17;;;;;;;7.23;1.70;;;17.80;99.90;;;;;;5017530;28;20032;-86
2022/05/12 09:43:44;;;;;;;10.43;2.30;;;18.60;99.90;;;;;;5023857;28;20044;-91
2022/05/12 09:46:26;;;;;;;9.37;2.30;;;19.10;99.90;;;;;;5048455;28;20071;-90
2022/05/12 09:48:52;;;;;;;7.90;2.07;;;20.00;98.70;;;;;;5034985;28;20073;-89
2022/05/12 09:51:29;;;;;;;7.87;1.70;;;20.00;96.10;;;;;;5031559;28;20091;-90
2022/05/12 09:54:17;;;;;;;6.43;2.07;;;19.60;95.50;;;;;;5044980;28;20048;-88
2022/05/12 09:57:00;;;;;;;7.17;1.90;;;18.90;97.70;;;;;;5030259;28;20039;-84
2022/05/12 09:59:29;;;;;;;6.80;2.20;;;19.50;98.00;;;;;;5034928;28;20044;-85
2022/05/12 10:08:08;;;;;;;8.23;1.80;;;20.10;94.60;;;;;;5027859;28;20033;-85
2022/05/12 10:10:35;;;;;;;7.03;1.80;;;19.90;93.40;;;;;;5022989;28;20056;-89
2022/05/12 10:13:19;;;;;;;9.50;1.70;;;19.90;94.20;;;;;;5048441;28;20042;-87
2022/05/12 10:15:46;;;;;;;7.07;2.00;;;19.70;94.60;;;;;;5064266;28;20045;-85
2022/05/12 10:18:19;;;;;;;7.40;1.70;;;19.80;94.70;;;;;;5039377;28;20098;-86
2022/05/12 10:20:49;;;;;;;8.00;2.10;;;19.90;94.20;;;;;;5050081;28;20048;-86
2022/05/12 10:23:21;;;;;;;5.17;1.50;;;19.90;93.10;;;;;;5027342;28;20033;-85
2022/05/12 10:25:57;;;;;;;4.77;1.57;;;19.90;93.70;;;;;;5032128;28;20045;-85
2022/05/12 10:28:28;;;;;;;6.73;1.40;;;20.30;93.40;;;;;;5035434;28;20045;-87
2022/05/12 10:31:00;;;;;;;6.13;1.90;;;20.80;92.80;;;;;;5051920;28;20131;-89
2022/05/12 10:33:49;;;;;;;8.23;1.97;;;21.30;92.90;;;;;;5048948;28;20036;-89
2022/05/12 10:36:25;;;;;;;9.00;1.77;;;21.60;91.00;;;;;;5048767;28;20045;-86
2022/05/12 10:39:01;;;;;;;4.93;1.60;;;21.70;89.50;;;;;;5029689;28;20451;-84
2022/05/12 10:41:33;;;;;;;;;;;21.70;85.70;;;;;;5036486;28;20051;-88
2022/05/12 10:44:17;;;;;;;7.27;1.30;;;21.80;83.40;;;;;;5035694;28;19916;-88
2022/05/12 10:46:57;;;;;;;6.05;1.30;;;21.90;85.40;;;;;;5014746;28;20446;-88
2022/05/12 10:49:34;;;;;;;6.93;1.80;;;22.30;81.90;;;;;;5035484;28;20045;-88
2022/05/12 10:52:17;;;;;;;11.90;1.80;;;22.60;82.30;;;;;;5024081;28;20090;-84
2022/05/12 10:55:07;;;;;;;5.60;1.45;;;22.90;82.30;;;;;;5032586;28;20045;-88
2022/05/12 10:57:46;;;;;;;4.13;1.30;;;22.80;78.20;;;;;;5034747;28;20128;-86
2022/05/12 11:00:28;;;;;;;6.07;1.43;;;22.60;79.90;;;;;;5033687;28;20484;-91
2022/05/12 11:03:00;;;;;;;4.73;1.50;;;22.60;79.20;;;;;;5035595;28;20519;-89
2022/05/12 11:05:32;;;;;;;4.43;1.37;;;22.60;76.80;;;;;;5059876;28;20036;-87
2022/05/12 11:08:09;;;;;;;3.93;1.43;;;22.10;76.60;;;;;;5057375;28;20049;-90
2022/05/12 11:10:44;;;;;;;5.73;1.30;;;21.40;78.70;;;;;;5014569;28;20067;-87
2022/05/12 11:13:14;;;;;;;4.93;1.20;;;21.60;79.30;;;;;;5053223;28;20507;-84
2022/05/12 11:15:57;;;;;;;3.90;1.30;;;21.70;78.30;;;;;;5052354;28;20040;-84
2022/05/12 11:18:28;;;;;;;5.80;1.57;;;21.80;77.70;;;;;;5024054;28;20068;-88
2022/05/12 11:21:06;;;;;;;6.37;1.57;;;21.30;77.00;;;;;;5039746;28;20047;-86
2022/05/12 11:23:47;;;;;;;5.53;1.93;;;21.10;82.30;;;;;;5035972;28;20406;-87
2022/05/12 11:26:27;;;;;;;5.43;1.50;;;21.20;83.60;;;;;;5035601;28;20075;-86
2022/05/12 11:31:54;;;;;;;6.07;1.67;;;22.10;81.90;;;;;;5044113;28;20041;-89
2022/05/12 11:34:27;;;;;;;6.30;1.10;;;22.50;75.50;;;;;;5018354;28;20060;-91
2022/05/12 11:37:31;;;;;;;4.68;1.48;;;22.40;72.60;;;;;;5027417;28;20041;-90
2022/05/12 11:40:05;;;;;;;5.37;1.40;;;21.80;71.70;;;;;;5019851;28;20566;-90
2022/05/12 11:45:41;;;;;;;5.73;1.60;;;22.00;72.70;;;;;;5032130;28;20051;-89
2022/05/12 11:48:25;;;;;;;6.50;1.40;;;21.70;73.50;;;;;;5017843;28;20036;-92
2022/05/12 11:51:22;;;;;;;6.30;1.83;;;21.50;77.10;;;;;;5019709;28;20521;-88
2022/05/12 11:53:57;;;;;;;5.33;1.27;;;21.60;73.80;;;;;;5047992;28;20044;-87
2022/05/12 11:56:50;;;;;;;5.50;1.50;;;21.80;73.70;;;;;;5032128;28;20080;-89
2022/05/12 11:59:36;;;;;;;3.63;1.40;;;22.10;74.60;;;;;;5027578;28;20041;-85
2022/05/12 12:02:33;;;;;;;5.13;1.67;;;21.70;73.80;;;;;;5005429;28;20045;-85
2022/05/12 12:05:06;;;;;;;3.17;1.00;;;21.80;76.50;;;;;;5039885;28;20043;-84
2022/05/12 12:08:06;;;;;;;5.07;1.60;;;21.70;72.80;;;;;;5037042;28;20069;-84
2022/05/12 12:10:48;;;;;;;5.47;1.40;;;21.20;73.80;;;;;;5043782;28;20098;-87
2022/05/12 12:13:32;;;;;;;3.23;1.10;;;20.90;77.10;;;;;;5012614;28;20054;-83
2022/05/12 12:16:19;;;;;;;3.37;1.37;;;21.10;72.70;;;;;;5019736;28;20083;-82
2022/05/12 12:19:07;;;;;;;5.37;1.30;;;21.40;75.70;;;;;;5049215;28;20072;-87
2022/05/12 12:21:53;;;;;;;4.17;1.40;;;21.30;71.80;;;;;;5039585;28;20119;-89
2022/05/12 12:24:50;;;;;;;5.97;1.50;;;21.10;72.50;;;;;;5044564;28;20091;-85
2022/05/12 12:28:00;;;;;;;4.83;1.40;;;20.50;72.50;;;;;;5023647;28;20131;-84
2022/05/12 12:30:57;;;;;;;4.57;1.30;;;19.70;74.20;;;;;;5047786;28;20423;-83
2022/05/12 12:34:11;;;;;;;3.30;1.17;;;19.50;76.80;;;;;;5042234;28;20408;-83
2022/05/12 12:37:05;;;;;;;4.55;1.45;;;19.50;76.70;;;;;;5066454;28;20474;-82
2022/05/12 12:39:49;;;;;;;4.30;1.40;;;19.10;76.00;;;;;;5046589;28;20041;-86
2022/05/12 12:42:48;;;;;;;5.67;1.50;;;18.90;78.50;;;;;;5034349;28;20044;-85
2022/05/12 12:45:20;;;;;;;6.83;1.90;;;19.30;79.80;;;;;;5030301;28;20143;-88
2022/05/12 12:47:56;;;;;;;3.53;1.20;;;19.20;79.10;;;;;;5031729;28;20053;-89
2022/05/12 12:50:41;;;;;;;6.80;1.47;;;19.40;81.30;;;;;;5041243;28;20509;-84
2022/05/12 12:53:11;;;;;;;3.63;1.10;;;19.50;78.30;;;;;;5047306;28;20056;-85
2022/05/12 12:58:35;;;;;;;4.63;1.20;;;19.50;79.30;;;;;;5030036;28;20182;-87
2022/05/12 13:01:09;;;;;;;4.77;1.20;;;19.40;77.20;;;;;;5032265;28;20036;-90
2022/05/12 13:03:38;;;;;;;5.32;1.40;;;19.10;78.40;;;;;;5023885;28;20044;-90
2022/05/12 13:06:11;;;;;;;6.20;1.37;;;19.00;80.10;;;;;;5045250;28;20041;-90
2022/05/12 13:08:41;;;;;;;6.60;1.70;;;19.10;84.70;;;;;;5038734;28;20044;-88
2022/05/12 13:11:16;;;;;;;4.93;1.40;;;19.90;82.00;;;;;;5033441;28;20037;-90
2022/05/12 13:13:55;;;;;;;6.83;1.60;;;20.20;78.50;;;;;;5032981;28;20059;-86
2022/05/12 13:16:27;;;;;;;6.30;1.47;;;20.00;77.60;;;;;;5030785;28;20063;-87
2022/05/12 13:18:54;;;;;;;4.70;1.40;;;20.40;75.50;;;;;;5030909;28;20055;-86
2022/05/12 13:21:32;;;;;;;4.93;1.10;;;20.10;75.50;;;;;;5014824;28;20037;-86
2022/05/12 13:24:04;;;;;;;4.07;1.40;;;19.90;77.80;;;;;;5031244;28;20151;-87
2022/05/12 13:26:36;;;;;;;3.87;1.27;;;19.70;78.30;;;;;;5023662;28;20040;-88
2022/05/12 13:29:23;;;;;;;8.20;1.43;;;19.70;75.90;;;;;;5035713;28;20049;-89
2022/05/12 13:32:00;;;;;;;;;;;19.90;75.50;;;;;;5028354;28;20044;-86